Time;durP1;ratioP1;P1;durP2;ratioP2;P2;SDS_P1;SDS_P2;PMS_P1;PMS_P2;Temp;Humidity;BMP_temperature;BMP_pressure;BME280_temperature;BME280_humidity;BME280_pressure;Samples;Min_cycle;Max_cycle;Signal;HPM_P1;HPM_P2
2023/08/12 00:00:17;;;;;;;;;;;;;;;;;;2084279;28;19916;-81
2023/08/12 00:01:37;;;;;;;;;;;;;;;;;;2083001;28;19916;-80
2023/08/12 00:02:58;;;;;;;;;;;;;;;;;;2083062;28;19913;-80
2023/08/12 00:04:19;;;;;;;;;;;;;;;;;;2080704;28;20304;-80
2023/08/12 00:05:40;;;;;;;;;;;;;;;;;;2083644;28;19913;-80
2023/08/12 00:07:00;;;;;;;;;;;;;;;;;;2079304;28;19920;-80
2023/08/12 00:08:21;;;;;;;;;;;;;;;;;;2079908;28;19905;-80
2023/08/12 00:09:42;;;;;;;;;;;;;;;;;;2079657;28;19909;-81
2023/08/12 00:11:03;;;;;;;;;;;;;;;;;;2079351;28;19909;-81
2023/08/12 00:12:24;;;;;;;;;;;;;;;;;;2088030;28;19987;-81
2023/08/12 00:13:44;;;;;;;;;;;;;;;;;;2084176;28;19909;-81
2023/08/12 00:15:06;;;;;;;;;;;;;;;;;;2088245;28;19917;-80
2023/08/12 00:16:27;;;;;;;;;;;;;;;;;;2086965;28;19916;-81
2023/08/12 00:17:47;;;;;;;;;;;;;;;;;;2081718;28;19917;-80
2023/08/12 00:19:08;;;;;;;;;;;;;;;;;;2083449;28;19909;-80
2023/08/12 00:20:29;;;;;;;;;;;;;;;;;;2081664;28;19921;-80
2023/08/12 00:21:52;;;;;;;;;;;;;;;;;;2083076;28;20369;-81
2023/08/12 00:23:13;;;;;;;;;;;;;;;;;;2082811;28;20292;-81
2023/08/12 00:24:34;;;;;;;;;;;;;;;;;;2081968;28;19910;-79
2023/08/12 00:25:54;;;;;;;;;;;;;;;;;;2077149;28;20639;-80
2023/08/12 00:27:15;;;;;;;;;;;;;;;;;;2081807;28;19913;-80
2023/08/12 00:28:36;;;;;;;;;;;;;;;;;;2088264;28;19920;-80
2023/08/12 00:29:56;;;;;;;;;;;;;;;;;;2087392;28;20268;-79
2023/08/12 00:31:17;;;;;;;;;;;;;;;;;;2086936;28;19909;-80
2023/08/12 00:32:38;;;;;;;;;;;;;;;;;;2083675;28;20273;-80
2023/08/12 00:33:58;;;;;;;;;;;;;;;;;;2082551;28;19909;-80
2023/08/12 00:35:19;;;;;;;;;;;;;;;;;;2080480;28;20336;-80
2023/08/12 00:36:40;;;;;;;;;;;;;;;;;;2079144;28;19909;-80
2023/08/12 00:38:01;;;;;;;;;;;;;;;;;;2080555;28;19917;-80
2023/08/12 00:39:22;;;;;;;;;;;;;;;;;;2083512;28;19980;-79
2023/08/12 00:40:43;;;;;;;;;;;;;;;;;;2083000;28;20387;-80
2023/08/12 00:42:04;;;;;;;;;;;;;;;;;;2073330;28;19917;-79
2023/08/12 00:43:25;;;;;;;;;;;;;;;;;;2072848;28;19913;-80
2023/08/12 00:44:45;;;;;;;;;;;;;;;;;;2071709;28;19958;-80
2023/08/12 00:46:06;;;;;;;;;;;;;;;;;;2075943;28;19917;-79
2023/08/12 00:47:27;;;;;;;;;;;;;;;;;;2077973;28;19917;-79
2023/08/12 00:48:47;;;;;;;;;;;;;;;;;;2082170;28;20443;-79
2023/08/12 00:50:08;;;;;;;;;;;;;;;;;;2082590;28;19910;-80
2023/08/12 00:51:29;;;;;;;;;;;;;;;;;;2081658;28;19909;-79
2023/08/12 00:52:49;;;;;;;;;;;;;;;;;;2082205;28;19913;-80
2023/08/12 00:54:10;;;;;;;;;;;;;;;;;;2081219;28;19909;-80
2023/08/12 00:55:31;;;;;;;;;;;;;;;;;;2081144;28;19920;-79
2023/08/12 00:56:51;;;;;;;;;;;;;;;;;;2082724;28;20368;-80
2023/08/12 00:58:12;;;;;;;;;;;;;;;;;;2081107;28;19921;-78
2023/08/12 00:59:33;;;;;;;;;;;;;;;;;;2080063;28;19925;-80
2023/08/12 01:00:53;;;;;;;;;;;;;;;;;;2082204;28;20258;-78
2023/08/12 01:02:14;;;;;;;;;;;;;;;;;;2082099;28;19987;-80
2023/08/12 01:03:35;;;;;;;;;;;;;;;;;;2079997;28;20363;-79
2023/08/12 01:04:56;;;;;;;;;;;;;;;;;;2083793;28;19913;-79
2023/08/12 01:06:16;;;;;;;;;;;;;;;;;;2081392;28;19909;-80
2023/08/12 01:07:37;;;;;;;;;;;;;;;;;;2087576;28;19936;-79
2023/08/12 01:08:58;;;;;;;;;;;;;;;;;;2090842;28;19913;-80
2023/08/12 01:10:18;;;;;;;;;;;;;;;;;;2081494;28;19909;-80
2023/08/12 01:11:39;;;;;;;;;;;;;;;;;;2079113;28;19913;-80
2023/08/12 01:13:00;;;;;;;;;;;;;;;;;;2079327;28;19913;-80
2023/08/12 01:14:20;;;;;;;;;;;;;;;;;;2081701;28;19909;-80
2023/08/12 01:15:41;;;;;;;;;;;;;;;;;;2082344;28;19924;-80
2023/08/12 01:17:03;;;;;;;;;;;;;;;;;;2083073;28;19909;-80
2023/08/12 01:18:24;;;;;;;;;;;;;;;;;;2081136;28;19929;-80
2023/08/12 01:19:44;;;;;;;;;;;;;;;;;;2083127;28;19910;-80
2023/08/12 01:21:05;;;;;;;;;;;;;;;;;;2077046;28;20301;-80
2023/08/12 01:22:26;;;;;;;;;;;;;;;;;;2082190;28;19913;-80
2023/08/12 01:23:47;;;;;;;;;;;;;;;;;;2082051;28;20284;-81
2023/08/12 01:25:07;;;;;;;;;;;;;;;;;;2082704;28;19909;-80
2023/08/12 01:26:28;;;;;;;;;;;;;;;;;;2083631;28;19913;-80
2023/08/12 01:27:49;;;;;;;;;;;;;;;;;;2081597;28;19921;-81
2023/08/12 01:29:09;;;;;;;;;;;;;;;;;;2083576;28;20357;-80
2023/08/12 01:30:30;;;;;;;;;;;;;;;;;;2082116;28;19921;-80
2023/08/12 01:31:51;;;;;;;;;;;;;;;;;;2082131;28;20284;-81
2023/08/12 01:33:12;;;;;;;;;;;;;;;;;;2079577;28;19920;-81
2023/08/12 01:34:32;;;;;;;;;;;;;;;;;;2081728;28;20253;-82
2023/08/12 01:35:53;;;;;;;;;;;;;;;;;;2082057;28;19913;-81
2023/08/12 01:37:14;;;;;;;;;;;;;;;;;;2081791;28;19909;-81
2023/08/12 01:38:34;;;;;;;;;;;;;;;;;;2079384;28;19928;-81
2023/08/12 01:39:55;;;;;;;;;;;;;;;;;;2083333;28;19917;-80
2023/08/12 01:41:16;;;;;;;;;;;;;;;;;;2082384;28;19917;-81
2023/08/12 01:42:36;;;;;;;;;;;;;;;;;;2082806;28;19909;-81
2023/08/12 01:43:57;;;;;;;;;;;;;;;;;;2082634;28;19959;-80
2023/08/12 01:45:18;;;;;;;;;;;;;;;;;;2083366;28;19920;-81
2023/08/12 01:46:38;;;;;;;;;;;;;;;;;;2081684;28;19916;-81
2023/08/12 01:47:59;;;;;;;;;;;;;;;;;;2072976;28;19921;-81
2023/08/12 01:49:20;;;;;;;;;;;;;;;;;;2071743;28;19917;-81
2023/08/12 01:50:46;;;;;;;;;;;;;;;;;;2079919;28;19913;-81
2023/08/12 01:52:07;;;;;;;;;;;;;;;;;;2081605;28;19948;-81
2023/08/12 01:53:28;;;;;;;;;;;;;;;;;;2079124;28;20369;-81
2023/08/12 01:54:49;;;;;;;;;;;;;;;;;;2083525;28;19910;-81
2023/08/12 01:56:09;;;;;;;;;;;;;;;;;;2082030;28;19913;-81
2023/08/12 01:57:30;;;;;;;;;;;;;;;;;;2082775;28;19909;-81
2023/08/12 01:58:51;;;;;;;;;;;;;;;;;;2082453;28;19924;-81
2023/08/12 02:00:12;;;;;;;;;;;;;;;;;;2082985;28;19910;-81
2023/08/12 02:01:32;;;;;;;;;;;;;;;;;;2082056;28;19909;-81
2023/08/12 02:02:53;;;;;;;;;;;;;;;;;;2073961;28;19910;-81
2023/08/12 02:04:14;;;;;;;;;;;;;;;;;;2078864;28;19916;-81
2023/08/12 02:05:36;;;;;;;;;;;;;;;;;;2077385;28;19919;-81
2023/08/12 02:06:57;;;;;;;;;;;;;;;;;;2073378;28;19910;-80
2023/08/12 02:08:18;;;;;;;;;;;;;;;;;;2069655;28;19984;-81
2023/08/12 02:09:39;;;;;;;;;;;;;;;;;;2070725;28;19909;-80
2023/08/12 02:10:59;;;;;;;;;;;;;;;;;;2071407;28;19909;-80
2023/08/12 02:12:20;;;;;;;;;;;;;;;;;;2076000;28;20304;-81
2023/08/12 02:13:41;;;;;;;;;;;;;;;;;;2074174;28;19917;-81
2023/08/12 02:15:01;;;;;;;;;;;;;;;;;;2074699;28;20281;-81
2023/08/12 02:16:22;;;;;;;;;;;;;;;;;;2074296;28;19916;-81
2023/08/12 02:17:43;;;;;;;;;;;;;;;;;;2073873;28;19910;-81
2023/08/12 02:19:03;;;;;;;;;;;;;;;;;;2081051;28;19913;-81
2023/08/12 02:20:24;;;;;;;;;;;;;;;;;;2082813;28;19956;-80
2023/08/12 02:21:45;;;;;;;;;;;;;;;;;;2081964;28;19916;-81
2023/08/12 02:23:06;;;;;;;;;;;;;;;;;;2081792;28;19914;-81
2023/08/12 02:24:26;;;;;;;;;;;;;;;;;;2082906;28;19913;-80
2023/08/12 02:25:47;;;;;;;;;;;;;;;;;;2082690;28;19909;-80
2023/08/12 02:27:08;;;;;;;;;;;;;;;;;;2082140;28;20273;-80
2023/08/12 02:28:28;;;;;;;;;;;;;;;;;;2081053;28;19917;-81
2023/08/12 02:29:49;;;;;;;;;;;;;;;;;;2080132;28;20042;-79
2023/08/12 02:31:10;;;;;;;;;;;;;;;;;;2079413;28;19921;-81
2023/08/12 02:32:30;;;;;;;;;;;;;;;;;;2070452;28;20380;-80
2023/08/12 02:33:51;;;;;;;;;;;;;;;;;;2070304;28;19913;-81
2023/08/12 02:35:12;;;;;;;;;;;;;;;;;;2071059;28;19910;-80
2023/08/12 02:36:33;;;;;;;;;;;;;;;;;;2074684;28;19910;-81
2023/08/12 02:37:53;;;;;;;;;;;;;;;;;;2073217;28;20241;-80
2023/08/12 02:39:14;;;;;;;;;;;;;;;;;;2070831;28;19909;-81
2023/08/12 02:40:35;;;;;;;;;;;;;;;;;;2070159;28;19924;-80
2023/08/12 02:41:55;;;;;;;;;;;;;;;;;;2070643;28;19916;-80
2023/08/12 02:43:16;;;;;;;;;;;;;;;;;;2070497;28;19936;-81
2023/08/12 02:44:37;;;;;;;;;;;;;;;;;;2075684;28;19913;-81
2023/08/12 02:45:57;;;;;;;;;;;;;;;;;;2078771;28;20336;-80
2023/08/12 02:47:18;;;;;;;;;;;;;;;;;;2077991;28;19909;-81
2023/08/12 02:48:39;;;;;;;;;;;;;;;;;;2080796;28;20268;-81
2023/08/12 02:49:59;;;;;;;;;;;;;;;;;;2081431;28;20061;-80
2023/08/12 02:51:20;;;;;;;;;;;;;;;;;;2081796;28;19916;-81
2023/08/12 02:52:41;;;;;;;;;;;;;;;;;;2081974;28;19980;-80
2023/08/12 02:54:02;;;;;;;;;;;;;;;;;;2074232;28;19909;-80
2023/08/12 02:55:22;;;;;;;;;;;;;;;;;;2078860;28;19913;-82
2023/08/12 02:56:43;;;;;;;;;;;;;;;;;;2073581;28;19913;-81
2023/08/12 02:58:04;;;;;;;;;;;;;;;;;;2074422;28;20301;-81
2023/08/12 02:59:25;;;;;;;;;;;;;;;;;;2087185;28;20376;-80
2023/08/12 03:00:46;;;;;;;;;;;;;;;;;;2082224;28;19924;-81
2023/08/12 03:02:07;;;;;;;;;;;;;;;;;;2079144;28;19913;-81
2023/08/12 03:03:27;;;;;;;;;;;;;;;;;;2079744;28;19909;-81
2023/08/12 03:04:48;;;;;;;;;;;;;;;;;;2078492;28;19925;-81
2023/08/12 03:06:09;;;;;;;;;;;;;;;;;;2078056;28;19955;-81
2023/08/12 03:07:29;;;;;;;;;;;;;;;;;;2079066;28;19967;-81
2023/08/12 03:08:50;;;;;;;;;;;;;;;;;;2074790;28;19924;-81
2023/08/12 03:10:11;;;;;;;;;;;;;;;;;;2073627;28;19917;-81
2023/08/12 03:11:32;;;;;;;;;;;;;;;;;;2080390;28;19908;-81
2023/08/12 03:12:53;;;;;;;;;;;;;;;;;;2082499;28;20357;-80
2023/08/12 03:14:14;;;;;;;;;;;;;;;;;;2079152;28;19909;-81
2023/08/12 03:15:35;;;;;;;;;;;;;;;;;;2078655;28;19913;-80
2023/08/12 03:16:55;;;;;;;;;;;;;;;;;;2078303;28;19909;-81
2023/08/12 03:18:16;;;;;;;;;;;;;;;;;;2080936;28;19924;-80
2023/08/12 03:19:37;;;;;;;;;;;;;;;;;;2081674;28;20320;-81
2023/08/12 03:20:57;;;;;;;;;;;;;;;;;;2081488;28;19976;-81
2023/08/12 03:22:18;;;;;;;;;;;;;;;;;;2080942;28;19921;-81
2023/08/12 03:23:39;;;;;;;;;;;;;;;;;;2081480;28;19909;-80
2023/08/12 03:25:00;;;;;;;;;;;;;;;;;;2081644;28;19924;-81
2023/08/12 03:26:20;;;;;;;;;;;;;;;;;;2086914;28;19954;-80
2023/08/12 03:27:41;;;;;;;;;;;;;;;;;;2080184;28;19913;-81
2023/08/12 03:29:02;;;;;;;;;;;;;;;;;;2078356;28;19917;-80
2023/08/12 03:30:22;;;;;;;;;;;;;;;;;;2080984;28;19936;-80
2023/08/12 03:31:43;;;;;;;;;;;;;;;;;;2080816;28;20492;-80
2023/08/12 03:33:04;;;;;;;;;;;;;;;;;;2078515;28;19944;-80
2023/08/12 03:34:24;;;;;;;;;;;;;;;;;;2078875;28;19920;-80
2023/08/12 03:35:45;;;;;;;;;;;;;;;;;;2079122;28;19917;-80
2023/08/12 03:37:06;;;;;;;;;;;;;;;;;;2078368;28;19913;-80
2023/08/12 03:38:27;;;;;;;;;;;;;;;;;;2082569;28;20012;-81
2023/08/12 03:39:47;;;;;;;;;;;;;;;;;;2073813;28;20254;-80
2023/08/12 03:41:08;;;;;;;;;;;;;;;;;;2073734;28;19909;-81
2023/08/12 03:42:29;;;;;;;;;;;;;;;;;;2073535;28;19910;-81
2023/08/12 03:43:49;;;;;;;;;;;;;;;;;;2073442;28;19910;-80
2023/08/12 03:45:10;;;;;;;;;;;;;;;;;;2074615;28;19909;-81
2023/08/12 03:46:31;;;;;;;;;;;;;;;;;;2073826;28;19910;-80
2023/08/12 03:47:52;;;;;;;;;;;;;;;;;;2081109;28;20206;-82
2023/08/12 03:49:12;;;;;;;;;;;;;;;;;;2076280;28;19921;-80
2023/08/12 03:50:33;;;;;;;;;;;;;;;;;;2082712;28;20304;-80
2023/08/12 03:51:54;;;;;;;;;;;;;;;;;;2081631;28;19925;-80
2023/08/12 03:53:14;;;;;;;;;;;;;;;;;;2080979;28;19909;-80
2023/08/12 03:54:35;;;;;;;;;;;;;;;;;;2081259;28;19909;-81
2023/08/12 03:56:14;;;;;;;;;;;;;;;;;;2105985;27;19947;-80
2023/08/12 03:57:35;;;;;;;;;;;;;;;;;;2096652;28;19913;-80
2023/08/12 03:58:56;;;;;;;;;;;;;;;;;;2086598;28;19980;-80
2023/08/12 04:00:16;;;;;;;;;;;;;;;;;;2099380;28;19931;-79
2023/08/12 04:01:37;;;;;;;;;;;;;;;;;;2092460;28;19917;-80
2023/08/12 04:02:58;;;;;;;;;;;;;;;;;;2102605;28;19912;-79
2023/08/12 04:04:19;;;;;;;;;;;;;;;;;;2089486;28;19916;-80
2023/08/12 04:05:39;;;;;;;;;;;;;;;;;;2093165;28;20275;-80
2023/08/12 04:07:00;;;;;;;;;;;;;;;;;;2092284;28;19913;-80
2023/08/12 04:08:21;;;;;;;;;;;;;;;;;;2087307;28;20221;-80
2023/08/12 04:09:41;;;;;;;;;;;;;;;;;;2096884;28;19908;-81
2023/08/12 04:11:02;;;;;;;;;;;;;;;;;;2091873;28;19909;-80
2023/08/12 04:12:23;;;;;;;;;;;;;;;;;;2097011;28;19914;-81
2023/08/12 04:13:43;;;;;;;;;;;;;;;;;;2097544;28;20371;-80
2023/08/12 04:15:05;;;;;;;;;;;;;;;;;;2088714;28;20426;-81
2023/08/12 04:16:26;;;;;;;;;;;;;;;;;;2094661;28;20372;-80
2023/08/12 04:17:47;;;;;;;;;;;;;;;;;;2097983;28;19908;-80
2023/08/12 04:19:07;;;;;;;;;;;;;;;;;;2104926;28;20304;-80
2023/08/12 04:20:28;;;;;;;;;;;;;;;;;;2103202;28;19953;-80
2023/08/12 04:21:49;;;;;;;;;;;;;;;;;;2105271;28;19927;-80
2023/08/12 04:23:09;;;;;;;;;;;;;;;;;;2105723;28;19912;-81
2023/08/12 04:24:30;;;;;;;;;;;;;;;;;;2103395;28;19915;-80
2023/08/12 04:25:51;;;;;;;;;;;;;;;;;;2103953;28;19912;-81
2023/08/12 04:27:11;;;;;;;;;;;;;;;;;;2097746;28;19909;-80
2023/08/12 04:28:32;;;;;;;;;;;;;;;;;;2104337;28;19912;-80
2023/08/12 04:29:53;;;;;;;;;;;;;;;;;;2095713;28;19912;-80
2023/08/12 04:31:14;;;;;;;;;;;;;;;;;;2101062;28;20287;-80
2023/08/12 04:32:34;;;;;;;;;;;;;;;;;;2087788;28;19917;-80
2023/08/12 04:33:55;;;;;;;;;;;;;;;;;;2086251;28;19909;-79
2023/08/12 04:35:16;;;;;;;;;;;;;;;;;;2087728;28;19909;-80
2023/08/12 04:36:36;;;;;;;;;;;;;;;;;;2096982;28;19908;-80
2023/08/12 04:37:57;;;;;;;;;;;;;;;;;;2097074;28;19920;-80
2023/08/12 04:39:18;;;;;;;;;;;;;;;;;;2112137;28;19920;-80
2023/08/12 04:40:39;;;;;;;;;;;;;;;;;;2097783;28;19909;-80
2023/08/12 04:42:00;;;;;;;;;;;;;;;;;;2108758;28;19909;-80
2023/08/12 04:43:21;;;;;;;;;;;;;;;;;;2107181;28;20164;-80
2023/08/12 04:44:41;;;;;;;;;;;;;;;;;;2112374;28;19931;-79
2023/08/12 04:46:02;;;;;;;;;;;;;;;;;;2098891;28;19909;-79
2023/08/12 04:47:23;;;;;;;;;;;;;;;;;;2100538;28;19919;-79
2023/08/12 04:48:43;;;;;;;;;;;;;;;;;;2110336;28;19927;-79
2023/08/12 04:50:04;;;;;;;;;;;;;;;;;;2112198;28;19984;-78
2023/08/12 04:51:25;;;;;;;;;;;;;;;;;;2090783;28;20253;-79
2023/08/12 04:52:46;;;;;;;;;;;;;;;;;;2103663;28;19913;-79
2023/08/12 04:54:07;;;;;;;;;;;;;;;;;;2098396;28;19931;-79
2023/08/12 04:55:28;;;;;;;;;;;;;;;;;;2096257;28;19920;-79
2023/08/12 04:56:49;;;;;;;;;;;;;;;;;;2101031;28;19908;-79
2023/08/12 04:58:10;;;;;;;;;;;;;;;;;;2096319;28;19908;-79
2023/08/12 04:59:30;;;;;;;;;;;;;;;;;;2103958;28;19917;-79
2023/08/12 05:00:54;;;;;;;;;;;;;;;;;;2092219;28;19921;-79
2023/08/12 05:02:15;;;;;;;;;;;;;;;;;;2088844;28;19909;-80
2023/08/12 05:03:35;;;;;;;;;;;;;;;;;;2095160;28;19916;-79
2023/08/12 05:04:56;;;;;;;;;;;;;;;;;;2087144;28;20291;-78
2023/08/12 05:06:17;;;;;;;;;;;;;;;;;;2101752;28;19912;-79
2023/08/12 05:07:38;;;;;;;;;;;;;;;;;;2092480;28;20297;-79
2023/08/12 05:08:58;;;;;;;;;;;;;;;;;;2080342;28;19920;-78
2023/08/12 05:10:19;;;;;;;;;;;;;;;;;;2089503;28;19909;-78
2023/08/12 05:11:40;;;;;;;;;;;;;;;;;;2088313;28;19990;-77
2023/08/12 05:13:00;;;;;;;;;;;;;;;;;;2096317;28;19909;-78
2023/08/12 05:14:21;;;;;;;;;;;;;;;;;;2090038;28;19988;-77
2023/08/12 05:15:42;;;;;;;;;;;;;;;;;;2096077;28;19919;-77
2023/08/12 05:17:02;;;;;;;;;;;;;;;;;;2098675;28;20381;-77
2023/08/12 05:18:23;;;;;;;;;;;;;;;;;;2099401;28;19920;-77
2023/08/12 05:19:44;;;;;;;;;;;;;;;;;;2097152;28;19917;-76
2023/08/12 05:21:05;;;;;;;;;;;;;;;;;;2095467;28;19916;-77
2023/08/12 05:22:25;;;;;;;;;;;;;;;;;;2091376;28;19909;-77
2023/08/12 05:23:46;;;;;;;;;;;;;;;;;;2096039;28;20310;-77
2023/08/12 05:25:07;;;;;;;;;;;;;;;;;;2089673;28;19913;-77
2023/08/12 05:26:27;;;;;;;;;;;;;;;;;;2096072;28;19913;-77
2023/08/12 05:27:48;;;;;;;;;;;;;;;;;;2097855;28;19916;-77
2023/08/12 05:29:09;;;;;;;;;;;;;;;;;;2097828;28;19917;-77
2023/08/12 05:30:29;;;;;;;;;;;;;;;;;;2090140;28;19916;-76
2023/08/12 05:31:50;;;;;;;;;;;;;;;;;;2096326;28;19958;-77
2023/08/12 05:33:11;;;;;;;;;;;;;;;;;;2098131;28;19912;-76
2023/08/12 05:34:31;;;;;;;;;;;;;;;;;;2090921;28;19908;-77
2023/08/12 05:35:52;;;;;;;;;;;;;;;;;;2094512;28;19913;-77
2023/08/12 05:37:13;;;;;;;;;;;;;;;;;;2089929;28;20386;-77
2023/08/12 05:38:34;;;;;;;;;;;;;;;;;;2096093;28;19908;-77
2023/08/12 05:39:54;;;;;;;;;;;;;;;;;;2089316;28;20379;-78
2023/08/12 05:41:15;;;;;;;;;;;;;;;;;;2095605;28;20352;-77
2023/08/12 05:42:36;;;;;;;;;;;;;;;;;;2091245;28;19916;-77
2023/08/12 05:43:56;;;;;;;;;;;;;;;;;;2089931;28;19920;-77
2023/08/12 05:45:17;;;;;;;;;;;;;;;;;;2090011;28;20372;-77
2023/08/12 05:46:38;;;;;;;;;;;;;;;;;;2097526;28;19912;-76
2023/08/12 05:47:58;;;;;;;;;;;;;;;;;;2092342;28;20339;-76
2023/08/12 05:49:19;;;;;;;;;;;;;;;;;;2098212;28;19989;-77
2023/08/12 05:50:40;;;;;;;;;;;;;;;;;;2098886;28;20279;-77
2023/08/12 05:52:01;;;;;;;;;;;;;;;;;;2097170;28;20318;-77
2023/08/12 05:53:21;;;;;;;;;;;;;;;;;;2089413;28;19913;-77
2023/08/12 05:54:42;;;;;;;;;;;;;;;;;;2095692;28;19909;-77
2023/08/12 05:56:03;;;;;;;;;;;;;;;;;;2087937;28;19921;-77
2023/08/12 05:57:24;;;;;;;;;;;;;;;;;;2090257;28;20261;-76
2023/08/12 05:58:44;;;;;;;;;;;;;;;;;;2098294;28;20265;-77
2023/08/12 06:00:05;;;;;;;;;;;;;;;;;;2098567;28;19939;-76
2023/08/12 06:01:26;;;;;;;;;;;;;;;;;;2098169;28;19945;-77
2023/08/12 06:02:46;;;;;;;;;;;;;;;;;;2090682;28;19916;-77
2023/08/12 06:04:07;;;;;;;;;;;;;;;;;;2096396;28;20352;-76
2023/08/12 06:05:28;;;;;;;;;;;;;;;;;;2098005;28;19912;-77
2023/08/12 06:06:48;;;;;;;;;;;;;;;;;;2090925;28;19936;-76
2023/08/12 06:08:09;;;;;;;;;;;;;;;;;;2103083;28;19908;-77
2023/08/12 06:09:30;;;;;;;;;;;;;;;;;;2092428;28;19917;-77
2023/08/12 06:10:50;;;;;;;;;;;;;;;;;;2090396;28;20379;-77
2023/08/12 06:12:11;;;;;;;;;;;;;;;;;;2104212;28;20386;-76
2023/08/12 06:13:32;;;;;;;;;;;;;;;;;;2100950;28;19908;-76
2023/08/12 06:14:52;;;;;;;;;;;;;;;;;;2098143;28;20356;-76
2023/08/12 06:16:13;;;;;;;;;;;;;;;;;;2097745;28;19912;-76
2023/08/12 06:17:34;;;;;;;;;;;;;;;;;;2088150;28;20284;-76
2023/08/12 06:18:54;;;;;;;;;;;;;;;;;;2091671;28;19912;-76
2023/08/12 06:20:15;;;;;;;;;;;;;;;;;;2098148;28;19916;-76
2023/08/12 06:21:36;;;;;;;;;;;;;;;;;;2105640;28;20503;-76
2023/08/12 06:22:57;;;;;;;;;;;;;;;;;;2099769;28;19916;-76
2023/08/12 06:24:17;;;;;;;;;;;;;;;;;;2097666;28;19916;-77
2023/08/12 06:25:38;;;;;;;;;;;;;;;;;;2097910;28;19919;-76
2023/08/12 06:26:59;;;;;;;;;;;;;;;;;;2089536;28;20399;-76
2023/08/12 06:28:19;;;;;;;;;;;;;;;;;;2090085;28;20361;-77
2023/08/12 06:29:40;;;;;;;;;;;;;;;;;;2097028;28;19913;-77
2023/08/12 06:31:01;;;;;;;;;;;;;;;;;;2093347;28;19916;-76
2023/08/12 06:32:21;;;;;;;;;;;;;;;;;;2090859;28;20284;-76
2023/08/12 06:33:42;;;;;;;;;;;;;;;;;;2081868;28;19944;-76
2023/08/12 06:35:03;;;;;;;;;;;;;;;;;;2087416;28;19915;-76
2023/08/12 06:36:23;;;;;;;;;;;;;;;;;;2090564;28;19913;-76
2023/08/12 06:37:44;;;;;;;;;;;;;;;;;;2081716;28;19969;-76
2023/08/12 06:39:05;;;;;;;;;;;;;;;;;;2086422;28;19994;-77
2023/08/12 06:40:26;;;;;;;;;;;;;;;;;;2090401;28;19917;-77
2023/08/12 06:41:47;;;;;;;;;;;;;;;;;;2083906;28;19932;-77
2023/08/12 06:43:08;;;;;;;;;;;;;;;;;;2081627;28;19992;-77
2023/08/12 06:44:29;;;;;;;;;;;;;;;;;;2096516;28;19908;-77
2023/08/12 06:45:49;;;;;;;;;;;;;;;;;;2100568;28;19916;-77
2023/08/12 06:47:10;;;;;;;;;;;;;;;;;;2087876;28;20241;-77
2023/08/12 06:48:31;;;;;;;;;;;;;;;;;;2086009;28;19913;-77
2023/08/12 06:49:52;;;;;;;;;;;;;;;;;;2084693;28;20284;-77
2023/08/12 06:51:12;;;;;;;;;;;;;;;;;;2081667;28;19916;-77
2023/08/12 06:52:33;;;;;;;;;;;;;;;;;;2097491;28;19912;-77
2023/08/12 06:53:54;;;;;;;;;;;;;;;;;;2084186;28;19917;-77
2023/08/12 06:55:14;;;;;;;;;;;;;;;;;;2081263;28;19909;-77
2023/08/12 06:56:35;;;;;;;;;;;;;;;;;;2077019;28;20312;-77
2023/08/12 06:57:56;;;;;;;;;;;;;;;;;;2084240;28;19940;-76
2023/08/12 06:59:17;;;;;;;;;;;;;;;;;;2083788;28;20295;-76
2023/08/12 07:00:38;;;;;;;;;;;;;;;;;;2104966;28;19924;-77
2023/08/12 07:01:59;;;;;;;;;;;;;;;;;;2100423;28;20304;-77
2023/08/12 07:03:19;;;;;;;;;;;;;;;;;;2088783;28;19918;-77
2023/08/12 07:04:40;;;;;;;;;;;;;;;;;;2094844;28;20367;-77
2023/08/12 07:06:01;;;;;;;;;;;;;;;;;;2088359;28;19916;-77
2023/08/12 07:07:22;;;;;;;;;;;;;;;;;;2095003;28;19919;-77
2023/08/12 07:08:42;;;;;;;;;;;;;;;;;;2088876;28;20258;-76
2023/08/12 07:10:04;;;;;;;;;;;;;;;;;;2094211;28;19919;-77
2023/08/12 07:11:25;;;;;;;;;;;;;;;;;;2097335;28;20307;-77
2023/08/12 07:12:45;;;;;;;;;;;;;;;;;;2089101;28;19916;-77
2023/08/12 07:14:06;;;;;;;;;;;;;;;;;;2094736;28;20026;-76
2023/08/12 07:15:27;;;;;;;;;;;;;;;;;;2098045;28;19913;-77
2023/08/12 07:16:47;;;;;;;;;;;;;;;;;;2088895;28;19961;-76
2023/08/12 07:18:08;;;;;;;;;;;;;;;;;;2087492;28;19917;-77
2023/08/12 07:19:29;;;;;;;;;;;;;;;;;;2088948;28;19909;-77
2023/08/12 07:20:49;;;;;;;;;;;;;;;;;;2090276;28;19913;-77
2023/08/12 07:22:10;;;;;;;;;;;;;;;;;;2096725;28;20226;-77
2023/08/12 07:23:31;;;;;;;;;;;;;;;;;;2093505;28;19916;-77
2023/08/12 07:24:52;;;;;;;;;;;;;;;;;;2089531;28;19915;-76
2023/08/12 07:26:13;;;;;;;;;;;;;;;;;;2090223;28;19919;-77
2023/08/12 07:27:33;;;;;;;;;;;;;;;;;;2095906;28;19908;-77
2023/08/12 07:28:54;;;;;;;;;;;;;;;;;;2091929;28;19915;-77
2023/08/12 07:30:15;;;;;;;;;;;;;;;;;;2074527;28;19941;-77
2023/08/12 07:31:35;;;;;;;;;;;;;;;;;;2086060;28;19909;-77
2023/08/12 07:32:56;;;;;;;;;;;;;;;;;;2090484;28;20583;-77
2023/08/12 07:34:17;;;;;;;;;;;;;;;;;;2080789;28;19913;-77
2023/08/12 07:35:37;;;;;;;;;;;;;;;;;;2086720;28;19909;-77
2023/08/12 07:36:58;;;;;;;;;;;;;;;;;;2090108;28;20422;-77
2023/08/12 07:38:19;;;;;;;;;;;;;;;;;;2089149;28;19915;-77
2023/08/12 07:39:40;;;;;;;;;;;;;;;;;;2092418;28;20288;-77
2023/08/12 07:41:00;;;;;;;;;;;;;;;;;;2098119;28;20272;-77
2023/08/12 07:42:21;;;;;;;;;;;;;;;;;;2092591;28;20307;-77
2023/08/12 07:43:42;;;;;;;;;;;;;;;;;;2103230;28;19982;-78
2023/08/12 07:45:03;;;;;;;;;;;;;;;;;;2093446;28;19916;-77
2023/08/12 07:46:23;;;;;;;;;;;;;;;;;;2081438;28;19936;-77
2023/08/12 07:47:44;;;;;;;;;;;;;;;;;;2087104;28;19909;-77
2023/08/12 07:49:05;;;;;;;;;;;;;;;;;;2097661;28;20237;-77
2023/08/12 07:50:25;;;;;;;;;;;;;;;;;;2080342;28;19924;-77
2023/08/12 07:51:46;;;;;;;;;;;;;;;;;;2093944;28;19909;-77
2023/08/12 07:53:07;;;;;;;;;;;;;;;;;;2092563;28;19916;-77
2023/08/12 07:54:27;;;;;;;;;;;;;;;;;;2097272;28;19909;-77
2023/08/12 07:55:48;;;;;;;;;;;;;;;;;;2091862;28;19925;-77
2023/08/12 07:57:09;;;;;;;;;;;;;;;;;;2095955;28;19916;-77
2023/08/12 07:58:29;;;;;;;;;;;;;;;;;;2100884;28;19941;-77
2023/08/12 07:59:50;;;;;;;;;;;;;;;;;;2082170;28;20428;-77
2023/08/12 08:01:11;;;;;;;;;;;;;;;;;;2094343;28;19913;-77
2023/08/12 08:02:32;;;;;;;;;;;;;;;;;;2092838;28;19913;-78
2023/08/12 08:03:52;;;;;;;;;;;;;;;;;;2090053;28;20339;-77
2023/08/12 08:05:13;;;;;;;;;;;;;;;;;;2089520;28;19916;-77
2023/08/12 08:06:34;;;;;;;;;;;;;;;;;;2090016;28;19909;-77
2023/08/12 08:07:54;;;;;;;;;;;;;;;;;;2096805;28;19909;-77
2023/08/12 08:09:15;;;;;;;;;;;;;;;;;;2084559;28;19909;-77
2023/08/12 08:10:36;;;;;;;;;;;;;;;;;;2077878;28;20130;-77
2023/08/12 08:11:56;;;;;;;;;;;;;;;;;;2103600;28;19962;-77
2023/08/12 08:13:17;;;;;;;;;;;;;;;;;;2100022;28;19912;-77
2023/08/12 08:14:38;;;;;;;;;;;;;;;;;;2097321;28;19909;-78
2023/08/12 08:15:58;;;;;;;;;;;;;;;;;;2096602;28;19919;-77
2023/08/12 08:17:19;;;;;;;;;;;;;;;;;;2097249;28;19915;-77
2023/08/12 08:18:40;;;;;;;;;;;;;;;;;;2082909;28;20241;-77
2023/08/12 08:20:00;;;;;;;;;;;;;;;;;;2088558;28;19925;-77
2023/08/12 08:21:21;;;;;;;;;;;;;;;;;;2087625;28;19909;-77
2023/08/12 08:22:42;;;;;;;;;;;;;;;;;;2090115;28;20261;-77
2023/08/12 08:24:03;;;;;;;;;;;;;;;;;;2081612;28;19928;-77
2023/08/12 08:25:23;;;;;;;;;;;;;;;;;;2094868;28;19908;-77
2023/08/12 08:26:46;;;;;;;;;;;;;;;;;;2090260;28;20372;-77
2023/08/12 08:28:08;;;;;;;;;;;;;;;;;;2082164;28;19916;-77
2023/08/12 08:29:28;;;;;;;;;;;;;;;;;;2081036;28;20339;-77
2023/08/12 08:30:49;;;;;;;;;;;;;;;;;;2083509;28;19928;-77
2023/08/12 08:32:10;;;;;;;;;;;;;;;;;;2088485;28;19916;-77
2023/08/12 08:33:30;;;;;;;;;;;;;;;;;;2080187;28;20459;-78
2023/08/12 08:34:51;;;;;;;;;;;;;;;;;;2080024;28;19909;-77
2023/08/12 08:36:12;;;;;;;;;;;;;;;;;;2081618;28;19909;-77
2023/08/12 08:37:32;;;;;;;;;;;;;;;;;;2085419;28;20257;-77
2023/08/12 08:38:53;;;;;;;;;;;;;;;;;;2088403;28;19948;-77
2023/08/12 08:40:14;;;;;;;;;;;;;;;;;;2088377;28;19917;-77
2023/08/12 08:41:34;;;;;;;;;;;;;;;;;;2089544;28;19916;-77
2023/08/12 08:42:55;;;;;;;;;;;;;;;;;;2089849;28;20253;-77
2023/08/12 08:44:16;;;;;;;;;;;;;;;;;;2090947;28;20326;-78
2023/08/12 08:45:36;;;;;;;;;;;;;;;;;;2088545;28;19952;-79
2023/08/12 08:46:57;;;;;;;;;;;;;;;;;;2083374;28;20015;-77
2023/08/12 08:48:18;;;;;;;;;;;;;;;;;;2098020;28;19912;-78
2023/08/12 08:49:39;;;;;;;;;;;;;;;;;;2083362;28;19932;-78
2023/08/12 08:51:00;;;;;;;;;;;;;;;;;;2097374;28;19966;-78
2023/08/12 08:52:20;;;;;;;;;;;;;;;;;;2095228;28;19908;-77
2023/08/12 08:53:41;;;;;;;;;;;;;;;;;;2099805;28;19921;-77
2023/08/12 08:55:02;;;;;;;;;;;;;;;;;;2094684;28;19920;-78
2023/08/12 08:56:23;;;;;;;;;;;;;;;;;;2076950;28;19921;-78
2023/08/12 08:57:44;;;;;;;;;;;;;;;;;;2096067;28;19915;-77
2023/08/12 08:59:05;;;;;;;;;;;;;;;;;;2098368;28;19909;-77
2023/08/12 09:00:26;;;;;;;;;;;;;;;;;;2103091;28;20343;-77
2023/08/12 09:01:47;;;;;;;;;;;;;;;;;;2099920;28;19974;-77
2023/08/12 09:03:08;;;;;;;;;;;;;;;;;;2104449;28;19908;-77
2023/08/12 09:04:28;;;;;;;;;;;;;;;;;;2099364;28;19916;-78
2023/08/12 09:05:49;;;;;;;;;;;;;;;;;;2103732;28;19916;-78
2023/08/12 09:07:10;;;;;;;;;;;;;;;;;;2107735;28;20298;-77
2023/08/12 09:08:30;;;;;;;;;;;;;;;;;;2099520;28;19913;-77
2023/08/12 09:09:51;;;;;;;;;;;;;;;;;;2103406;28;20263;-77
2023/08/12 09:11:12;;;;;;;;;;;;;;;;;;2097998;28;19927;-77